createdAt,value
2019-06-15T00:00:37.749Z,19.76
2019-06-15T00:01:37.753Z,19.74
2019-06-15T00:02:37.745Z,19.71
2019-06-15T00:03:37.705Z,19.62
2019-06-15T00:04:37.694Z,19.73
2019-06-15T00:05:37.688Z,19.78
2019-06-15T00:06:37.685Z,19.63
2019-06-15T00:07:37.660Z,19.66
2019-06-15T00:08:37.648Z,19.66
2019-06-15T00:09:37.629Z,19.80
2019-06-15T00:10:37.619Z,19.62
2019-06-15T00:11:37.610Z,19.66
2019-06-15T00:12:37.608Z,19.77
2019-06-15T00:13:37.576Z,19.69
2019-06-15T00:14:37.561Z,19.63
2019-06-15T00:15:37.556Z,19.73
2019-06-15T00:16:37.536Z,19.68
2019-06-15T00:17:37.536Z,19.69
2019-06-15T00:18:37.528Z,19.76
2019-06-15T00:19:37.498Z,19.73
2019-06-15T00:20:37.491Z,19.66
2019-06-15T00:21:37.472Z,19.68
2019-06-15T00:22:37.456Z,19.66
2019-06-15T00:23:37.458Z,19.73
2019-06-15T00:24:37.427Z,19.77
2019-06-15T00:25:37.408Z,19.83
2019-06-15T00:26:37.399Z,19.84
2019-06-15T00:27:37.407Z,19.86
2019-06-15T00:28:37.376Z,19.83
2019-06-15T00:29:37.376Z,19.65
2019-06-15T00:30:37.359Z,19.71
2019-06-15T00:31:37.332Z,19.68
2019-06-15T00:32:37.319Z,19.66
2019-06-15T00:33:37.306Z,19.68
2019-06-15T00:34:37.297Z,19.61
2019-06-15T00:35:37.293Z,19.65
2019-06-15T00:36:37.285Z,19.69
2019-06-15T00:37:37.251Z,19.71
2019-06-15T00:38:37.238Z,19.73
2019-06-15T00:39:37.231Z,19.76
2019-06-15T00:40:37.240Z,19.73
2019-06-15T00:41:37.192Z,19.71
2019-06-15T00:42:37.193Z,19.74
2019-06-15T00:43:37.176Z,19.74
2019-06-15T00:44:37.159Z,19.68
2019-06-15T00:45:37.142Z,19.76
2019-06-15T00:46:37.145Z,19.71
2019-06-15T00:47:37.117Z,19.65
2019-06-15T00:48:37.101Z,19.80
2019-06-15T00:49:37.092Z,19.76
2019-06-15T00:50:37.083Z,19.77
2019-06-15T00:51:37.081Z,19.74
2019-06-15T00:52:37.047Z,19.80
2019-06-15T00:53:37.049Z,19.78
2019-06-15T00:54:49.722Z,19.80
2019-06-15T00:55:37.013Z,19.74
2019-06-15T00:56:36.991Z,19.80
2019-06-15T00:57:36.988Z,19.84
2019-06-15T00:58:36.985Z,19.78
2019-06-15T00:59:36.955Z,19.83
2019-06-15T01:00:36.956Z,19.83
2019-06-15T01:01:36.944Z,19.77
2019-06-15T01:02:37.000Z,19.65
2019-06-15T01:03:37.079Z,19.65
2019-06-15T01:04:36.886Z,19.68
2019-06-15T01:05:36.981Z,19.74
2019-06-15T01:06:36.859Z,19.61
2019-06-15T01:07:36.845Z,19.65
2019-06-15T01:08:36.841Z,19.58
2019-06-15T01:09:36.814Z,19.54
2019-06-15T01:10:36.802Z,19.50
2019-06-15T01:11:36.804Z,19.50
2019-06-15T01:12:36.832Z,19.50
2019-06-15T01:13:36.770Z,19.39
2019-06-15T01:14:36.748Z,19.33
2019-06-15T01:15:36.741Z,19.32
2019-06-15T01:16:36.769Z,19.28
2019-06-15T01:17:36.726Z,19.29
2019-06-15T01:18:36.753Z,19.28
2019-06-15T01:19:36.680Z,19.32
2019-06-15T01:20:36.670Z,19.28
2019-06-15T01:21:36.678Z,19.22
2019-06-15T01:22:36.674Z,19.11
2019-06-15T01:23:36.624Z,19.22
2019-06-15T01:24:36.608Z,19.10
2019-06-15T01:25:36.601Z,19.08
2019-06-15T01:26:36.582Z,19.10
2019-06-15T01:27:36.586Z,19.10
2019-06-15T01:28:36.556Z,19.04
2019-06-15T01:29:36.542Z,19.02
2019-06-15T01:30:36.529Z,19.07
2019-06-15T01:31:36.510Z,19.06
2019-06-15T01:32:36.509Z,19.04
2019-06-15T01:33:36.513Z,19.08
2019-06-15T01:34:36.512Z,19.08
2019-06-15T01:35:36.464Z,19.07
2019-06-15T01:36:36.445Z,19.07
2019-06-15T01:37:36.433Z,19.07
2019-06-15T01:38:36.416Z,19.02
2019-06-15T01:39:36.422Z,18.98
2019-06-15T01:40:36.390Z,18.99
2019-06-15T01:41:36.381Z,19.07
2019-06-15T01:42:36.361Z,18.95
2019-06-15T01:43:36.346Z,19.02
2019-06-15T01:44:36.341Z,19.02
2019-06-15T01:45:36.336Z,19.06
2019-06-15T01:46:36.305Z,19.06
2019-06-15T01:47:36.303Z,18.94
2019-06-15T01:48:36.272Z,19.07
2019-06-15T01:49:36.294Z,19.08
2019-06-15T01:50:36.270Z,19.07
2019-06-15T01:51:36.245Z,19.06
2019-06-15T01:52:36.226Z,19.06
2019-06-15T01:53:36.217Z,19.10
2019-06-15T01:54:36.195Z,19.08
2019-06-15T01:55:36.214Z,19.13
2019-06-15T01:58:18.310Z,19.11
2019-06-15T01:59:18.292Z,19.11
2019-06-15T02:00:18.283Z,19.11
2019-06-15T02:01:18.279Z,19.16
2019-06-15T02:02:18.272Z,19.11
2019-06-15T02:03:18.242Z,19.13
2019-06-15T02:04:18.233Z,19.07
2019-06-15T02:05:18.235Z,19.16
2019-06-15T02:06:18.215Z,19.08
2019-06-15T02:07:18.180Z,19.13
2019-06-15T02:08:18.184Z,19.07
2019-06-15T02:09:18.152Z,19.19
2019-06-15T02:10:18.138Z,19.13
2019-06-15T02:11:18.123Z,19.13
2019-06-15T02:12:18.108Z,19.22
2019-06-15T02:13:18.118Z,19.22
2019-06-15T02:14:18.102Z,19.22
2019-06-15T02:15:18.065Z,19.31
2019-06-15T02:16:18.075Z,19.25
2019-06-15T02:17:18.052Z,19.25
2019-06-15T02:18:18.024Z,19.26
2019-06-15T02:19:18.010Z,19.22
2019-06-15T02:20:17.993Z,19.22
2019-06-15T02:23:00.319Z,19.21
2019-06-15T02:24:00.321Z,19.21
2019-06-15T02:25:00.286Z,19.19
2019-06-15T02:26:00.276Z,19.19
2019-06-15T02:27:00.279Z,19.16
2019-06-15T02:28:00.260Z,19.08
2019-06-15T02:29:00.248Z,19.18
2019-06-15T02:30:00.251Z,19.10
2019-06-15T02:31:00.224Z,19.22
2019-06-15T02:33:42.319Z,19.11
2019-06-15T02:34:42.321Z,19.08
2019-06-15T02:35:42.294Z,19.07
2019-06-15T02:36:42.330Z,19.07
2019-06-15T02:39:24.327Z,19.08
2019-06-15T02:40:24.317Z,19.06
2019-06-15T02:41:24.311Z,19.11
2019-06-15T02:42:24.306Z,19.08
2019-06-15T02:43:24.279Z,19.18
2019-06-15T02:44:24.259Z,19.11
2019-06-15T02:45:24.245Z,19.08
2019-06-15T02:46:26.477Z,19.14
2019-06-15T02:47:24.215Z,19.07
2019-06-15T02:48:24.211Z,19.06
2019-06-15T02:49:24.178Z,19.07
2019-06-15T02:50:24.189Z,19.04
2019-06-15T02:51:24.166Z,19.13
2019-06-15T02:52:24.142Z,19.13
2019-06-15T02:53:24.134Z,19.08
2019-06-15T02:54:24.109Z,19.18
2019-06-15T02:55:24.099Z,19.19
2019-06-15T02:56:24.144Z,19.28
2019-06-15T02:57:24.086Z,19.31
2019-06-15T03:00:06.343Z,19.33
2019-06-15T03:01:06.319Z,19.33
2019-06-15T03:02:06.310Z,19.18
2019-06-15T03:03:06.304Z,19.14
2019-06-15T03:04:06.301Z,19.11
2019-06-15T03:05:06.263Z,19.13
2019-06-15T03:06:06.243Z,19.10
2019-06-15T03:07:06.237Z,19.11
2019-06-15T03:08:06.221Z,19.07
2019-06-15T03:09:06.235Z,19.06
2019-06-15T03:10:06.235Z,19.00
2019-06-15T03:11:06.173Z,19.04
2019-06-15T03:12:06.163Z,19.00
2019-06-15T03:13:06.181Z,19.02
2019-06-15T03:14:06.184Z,18.94
2019-06-15T03:15:06.121Z,18.91
2019-06-15T03:16:06.107Z,18.81
2019-06-15T03:17:06.097Z,18.94
2019-06-15T03:18:06.086Z,18.80
2019-06-15T03:19:06.081Z,18.87
2019-06-15T03:20:06.075Z,18.88
2019-06-15T03:21:06.038Z,18.88
2019-06-15T03:22:06.641Z,18.88
2019-06-15T03:23:06.011Z,18.94
2019-06-15T03:24:05.993Z,18.76
2019-06-15T03:25:05.992Z,18.90
2019-06-15T03:26:06.241Z,18.84
2019-06-15T03:27:05.953Z,18.85
2019-06-15T03:28:05.949Z,18.84
2019-06-15T03:29:05.929Z,18.84
2019-06-15T03:30:05.921Z,18.88
2019-06-15T03:31:05.937Z,18.81
2019-06-15T03:32:05.942Z,18.84
2019-06-15T03:33:05.877Z,18.84
2019-06-15T03:34:05.877Z,18.85
2019-06-15T03:35:05.840Z,18.80
2019-06-15T03:36:05.824Z,18.84
2019-06-15T03:37:05.833Z,18.88
2019-06-15T03:39:51.838Z,18.82
2019-06-15T03:40:51.831Z,18.70
2019-06-15T03:41:51.829Z,18.72
2019-06-15T03:42:51.813Z,18.65
2019-06-15T03:43:51.794Z,18.63
2019-06-15T03:44:51.780Z,18.70
2019-06-15T03:45:51.762Z,18.75
2019-06-15T03:46:51.739Z,18.60
2019-06-15T03:47:51.745Z,18.69
2019-06-15T03:48:51.712Z,18.63
2019-06-15T03:49:51.701Z,18.72
2019-06-15T03:50:51.678Z,18.67
2019-06-15T03:51:51.667Z,18.58
2019-06-15T03:52:51.656Z,18.66
2019-06-15T03:53:51.658Z,18.69
2019-06-15T03:54:51.626Z,18.73
2019-06-15T03:55:51.631Z,18.65
2019-06-15T03:56:51.602Z,18.55
2019-06-15T03:57:51.581Z,18.69
2019-06-15T03:58:51.583Z,18.60
2019-06-15T03:59:51.551Z,18.67
2019-06-15T04:00:51.576Z,18.58
2019-06-15T04:01:51.522Z,18.62
2019-06-15T04:02:51.510Z,18.51
2019-06-15T04:03:51.495Z,18.52
2019-06-15T04:04:52.436Z,18.66
2019-06-15T04:05:51.484Z,18.65
2019-06-15T04:06:51.468Z,18.66
2019-06-15T04:07:51.441Z,18.55
2019-06-15T04:08:51.416Z,18.50
2019-06-15T04:09:51.408Z,18.60
2019-06-15T04:10:51.399Z,18.54
2019-06-15T04:11:51.391Z,18.65
2019-06-15T04:12:51.361Z,18.54
2019-06-15T04:13:51.346Z,18.52
2019-06-15T04:14:51.331Z,18.52
2019-06-15T04:15:51.317Z,18.54
2019-06-15T04:16:51.300Z,18.50
2019-06-15T04:17:51.385Z,18.45
2019-06-15T04:18:51.300Z,18.54
2019-06-15T04:19:51.254Z,18.45
2019-06-15T04:20:51.244Z,18.35
2019-06-15T04:21:51.232Z,18.41
2019-06-15T04:22:51.239Z,18.29
2019-06-15T04:23:51.213Z,18.33
2019-06-15T04:24:51.217Z,18.39
2019-06-15T04:25:51.171Z,18.39
2019-06-15T04:28:33.355Z,18.25
2019-06-15T04:29:33.359Z,18.37
2019-06-15T04:30:33.325Z,18.29
2019-06-15T04:31:33.309Z,18.27
2019-06-15T04:32:33.298Z,18.23
2019-06-15T04:33:33.299Z,18.25
2019-06-15T04:34:33.290Z,18.20
2019-06-15T04:35:33.253Z,18.27
2019-06-15T04:36:33.242Z,18.23
2019-06-15T04:37:33.241Z,18.17
2019-06-15T04:38:33.209Z,18.23
2019-06-15T04:39:33.191Z,18.27
2019-06-15T04:40:33.174Z,18.25
2019-06-15T04:41:33.163Z,18.18
2019-06-15T04:42:33.194Z,18.27
2019-06-15T04:43:33.158Z,18.17
2019-06-15T04:44:33.118Z,18.15
2019-06-15T04:45:33.104Z,18.20
2019-06-15T04:46:33.088Z,18.25
2019-06-15T04:47:33.081Z,18.27
2019-06-15T04:48:33.056Z,18.18
2019-06-15T04:49:33.062Z,18.20
2019-06-15T04:50:33.024Z,18.17
2019-06-15T04:51:33.019Z,18.17
2019-06-15T04:52:33.006Z,18.25
2019-06-15T04:53:32.987Z,18.29
2019-06-15T04:54:32.988Z,18.17
2019-06-15T04:55:32.955Z,18.17
2019-06-15T04:56:32.945Z,18.17
2019-06-15T04:57:32.925Z,18.23
2019-06-15T04:58:32.935Z,18.20
2019-06-15T04:59:32.935Z,18.20
2019-06-15T05:00:32.881Z,18.20
2019-06-15T05:01:32.863Z,18.21
2019-06-15T05:02:32.857Z,18.23
2019-06-15T05:03:32.835Z,18.18
2019-06-15T05:04:32.822Z,18.23
2019-06-15T05:05:32.855Z,18.23
2019-06-15T05:06:32.792Z,18.14
2019-06-15T05:07:32.784Z,18.21
2019-06-15T05:08:32.766Z,18.08
2019-06-15T05:09:32.752Z,18.12
2019-06-15T05:10:32.740Z,18.20
2019-06-15T05:11:32.737Z,18.12
2019-06-15T05:12:32.708Z,18.10
2019-06-15T05:13:32.704Z,18.18
2019-06-15T05:14:32.681Z,18.07
2019-06-15T05:15:32.665Z,18.07
2019-06-15T05:16:32.661Z,18.20
2019-06-15T05:17:32.641Z,18.18
2019-06-15T05:18:32.638Z,18.18
2019-06-15T05:19:32.677Z,18.17
2019-06-15T05:20:32.585Z,18.14
2019-06-15T05:21:32.601Z,18.14
2019-06-15T05:22:32.557Z,18.18
2019-06-15T05:23:32.536Z,18.21
2019-06-15T05:24:32.562Z,18.10
2019-06-15T05:25:32.515Z,18.18
2019-06-15T05:26:32.523Z,18.15
2019-06-15T05:27:32.634Z,18.05
2019-06-15T05:30:18.375Z,18.08
2019-06-15T05:31:18.358Z,18.11
2019-06-15T05:32:18.358Z,18.20
2019-06-15T05:33:18.348Z,18.10
2019-06-15T05:34:18.314Z,18.23
2019-06-15T05:35:18.298Z,18.21
2019-06-15T05:36:18.334Z,18.11
2019-06-15T05:37:18.272Z,18.14
2019-06-15T05:38:18.257Z,18.11
2019-06-15T05:39:18.266Z,18.10
2019-06-15T05:40:18.233Z,18.08
2019-06-15T05:41:18.256Z,18.18
2019-06-15T05:42:18.193Z,18.12
2019-06-15T05:43:18.186Z,18.17
2019-06-15T05:44:18.169Z,18.08
2019-06-15T05:45:18.169Z,18.08
2019-06-15T05:46:18.307Z,18.18
2019-06-15T05:47:18.122Z,18.11
2019-06-15T05:48:18.106Z,18.17
2019-06-15T05:49:18.103Z,18.12
2019-06-15T05:50:18.084Z,18.15
2019-06-15T05:51:18.084Z,18.18
2019-06-15T05:52:18.061Z,18.23
2019-06-15T05:53:18.044Z,18.08
2019-06-15T05:54:18.069Z,18.12
2019-06-15T05:55:18.002Z,18.08
2019-06-15T05:56:18.010Z,18.15
2019-06-15T05:57:21.643Z,18.18
2019-06-15T05:58:18.094Z,18.21
2019-06-15T05:59:17.959Z,18.17
2019-06-15T06:00:18.183Z,18.18
2019-06-15T06:01:17.953Z,18.26
2019-06-15T06:02:20.977Z,18.41
2019-06-15T06:03:17.893Z,18.36
2019-06-15T06:04:17.879Z,18.30
2019-06-15T06:05:18.038Z,18.36
2019-06-15T06:06:17.865Z,18.29
2019-06-15T06:07:17.850Z,18.26
2019-06-15T06:08:17.844Z,18.25
2019-06-15T06:09:17.800Z,18.27
2019-06-15T06:10:17.785Z,18.20
2019-06-15T06:11:17.774Z,18.27
2019-06-15T06:12:17.760Z,18.27
2019-06-15T06:13:17.755Z,18.23
2019-06-15T06:14:17.723Z,18.33
2019-06-15T06:15:17.706Z,18.39
2019-06-15T06:16:17.816Z,18.35
2019-06-15T06:17:17.680Z,18.25
2019-06-15T06:18:17.669Z,18.36
2019-06-15T06:19:17.741Z,18.27
2019-06-15T06:20:17.693Z,18.26
2019-06-15T06:21:17.698Z,18.29
2019-06-15T06:22:17.608Z,18.36
2019-06-15T06:23:17.592Z,18.36
2019-06-15T06:24:17.588Z,18.45
2019-06-15T06:25:17.565Z,18.33
2019-06-15T06:26:17.583Z,18.41
2019-06-15T06:27:17.538Z,18.33
2019-06-15T06:28:17.523Z,18.47
2019-06-15T06:29:17.505Z,18.44
2019-06-15T06:30:17.494Z,18.37
2019-06-15T06:31:17.507Z,18.41
2019-06-15T06:32:17.463Z,18.54
2019-06-15T06:33:17.454Z,18.44
2019-06-15T06:34:17.448Z,18.44
2019-06-15T06:35:17.420Z,18.55
2019-06-15T06:36:17.408Z,18.60
2019-06-15T06:37:17.404Z,18.66
2019-06-15T06:38:17.468Z,18.66
2019-06-15T06:39:17.384Z,18.60
2019-06-15T06:40:17.353Z,18.66
2019-06-15T06:41:17.327Z,18.76
2019-06-15T06:42:17.313Z,18.84
2019-06-15T06:43:17.306Z,18.92
2019-06-15T06:44:17.354Z,18.98
2019-06-15T06:45:17.287Z,18.88
2019-06-15T06:46:17.271Z,18.95
2019-06-15T06:47:17.243Z,18.95
2019-06-15T06:48:17.243Z,18.98
2019-06-15T06:49:17.219Z,18.90
2019-06-15T06:50:17.233Z,19.02
2019-06-15T06:51:17.196Z,19.10
2019-06-15T06:52:17.187Z,19.07
2019-06-15T06:53:17.165Z,18.99
2019-06-15T06:54:17.208Z,18.99
2019-06-15T06:55:17.124Z,19.02
2019-06-15T06:56:17.160Z,18.98
2019-06-15T06:57:17.101Z,18.98
2019-06-15T06:58:17.081Z,18.99
2019-06-15T06:59:17.072Z,19.04
2019-06-15T07:00:17.057Z,19.06
2019-06-15T07:01:17.073Z,19.08
2019-06-15T07:02:17.033Z,19.21
2019-06-15T07:03:17.010Z,19.22
2019-06-15T07:04:17.002Z,19.26
2019-06-15T07:05:16.985Z,19.29
2019-06-15T07:06:16.976Z,19.40
2019-06-15T07:07:16.988Z,19.25
2019-06-15T07:08:16.967Z,19.19
2019-06-15T07:09:16.928Z,19.31
2019-06-15T07:10:16.981Z,19.32
2019-06-15T07:11:16.903Z,19.31
2019-06-15T07:12:16.901Z,19.47
2019-06-15T07:13:16.866Z,19.51
2019-06-15T07:14:16.869Z,19.50
2019-06-15T07:15:16.847Z,19.56
2019-06-15T07:16:16.866Z,19.73
2019-06-15T07:17:16.835Z,19.77
2019-06-15T07:18:16.844Z,19.83
2019-06-15T07:19:16.783Z,19.83
2019-06-15T07:20:16.780Z,19.92
2019-06-15T07:21:16.767Z,20.05
2019-06-15T07:22:16.744Z,19.91
2019-06-15T07:23:16.731Z,20.01
2019-06-15T07:24:16.733Z,20.16
2019-06-15T07:25:16.700Z,20.23
2019-06-15T07:26:17.983Z,20.01
2019-06-15T07:27:16.680Z,20.01
2019-06-15T07:28:16.665Z,19.98
2019-06-15T07:29:16.658Z,19.96
2019-06-15T07:30:16.639Z,19.94
2019-06-15T07:31:16.620Z,19.88
2019-06-15T07:32:16.628Z,19.92
2019-06-15T07:33:16.612Z,19.87
2019-06-15T07:34:16.701Z,19.94
2019-06-15T07:35:16.565Z,19.87
2019-06-15T07:36:16.622Z,19.73
2019-06-15T07:37:16.569Z,19.69
2019-06-15T07:38:16.519Z,19.63
2019-06-15T07:39:16.529Z,19.69
2019-06-15T07:40:16.505Z,19.59
2019-06-15T07:41:16.506Z,19.62
2019-06-15T07:42:16.482Z,19.58
2019-06-15T07:43:16.458Z,19.55
2019-06-15T07:44:16.442Z,19.61
2019-06-15T07:45:16.792Z,19.69
2019-06-15T07:46:16.416Z,19.69
2019-06-15T07:47:16.420Z,19.63
2019-06-15T07:48:16.562Z,19.61
2019-06-15T07:49:16.414Z,19.63
2019-06-15T07:50:16.365Z,19.63
2019-06-15T07:51:16.386Z,19.66
2019-06-15T07:52:16.339Z,19.73
2019-06-15T07:53:16.338Z,19.59
2019-06-15T07:54:16.328Z,19.50
2019-06-15T07:55:16.287Z,19.54
2019-06-15T07:56:16.282Z,19.51
2019-06-15T07:57:16.268Z,19.47
2019-06-15T07:58:24.650Z,19.48
2019-06-15T07:59:16.231Z,19.48
2019-06-15T08:00:16.237Z,19.37
2019-06-15T08:01:16.514Z,19.50
2019-06-15T08:02:16.193Z,19.50
2019-06-15T08:03:16.205Z,19.55
2019-06-15T08:04:16.165Z,19.55
2019-06-15T08:05:16.146Z,19.51
2019-06-15T08:06:16.139Z,19.55
2019-06-15T08:07:16.130Z,19.54
2019-06-15T08:08:16.100Z,19.58
2019-06-15T08:09:16.085Z,19.61
2019-06-15T08:10:16.072Z,19.54
2019-06-15T08:11:16.083Z,19.66
2019-06-15T08:12:16.046Z,19.54
2019-06-15T08:13:16.029Z,19.56
2019-06-15T08:14:16.095Z,19.47
2019-06-15T08:15:16.504Z,19.40
2019-06-15T08:16:16.006Z,19.37
2019-06-15T08:17:16.017Z,19.26
2019-06-15T08:18:15.995Z,19.18
2019-06-15T08:19:15.937Z,19.18
2019-06-15T08:20:15.922Z,19.28
2019-06-15T08:21:16.083Z,19.18
2019-06-15T08:22:15.920Z,19.16
2019-06-15T08:23:15.879Z,19.10
2019-06-15T08:24:15.876Z,18.98
2019-06-15T08:25:15.866Z,19.00
2019-06-15T08:26:15.839Z,18.87
2019-06-15T08:27:15.832Z,18.88
2019-06-15T08:28:15.884Z,18.81
2019-06-15T08:29:15.797Z,18.81
2019-06-15T08:30:15.848Z,18.73
2019-06-15T08:31:15.761Z,18.73
2019-06-15T08:32:15.763Z,18.76
2019-06-15T08:33:16.149Z,18.78
2019-06-15T08:34:15.733Z,18.82
2019-06-15T08:35:15.699Z,18.81
2019-06-15T08:36:15.712Z,18.73
2019-06-15T08:37:15.675Z,18.78
2019-06-15T08:38:15.677Z,18.87
2019-06-15T08:39:15.664Z,18.87
2019-06-15T08:40:15.628Z,18.82
2019-06-15T08:41:15.630Z,18.94
2019-06-15T08:42:15.591Z,18.81
2019-06-15T08:43:15.581Z,18.88
2019-06-15T08:44:15.577Z,18.95
2019-06-15T08:45:15.713Z,18.98
2019-06-15T08:46:15.534Z,18.87
2019-06-15T08:47:15.530Z,18.90
2019-06-15T08:48:15.658Z,18.84
2019-06-15T08:49:15.484Z,18.88
2019-06-15T08:50:15.487Z,18.73
2019-06-15T08:51:15.463Z,18.73
2019-06-15T08:52:15.440Z,18.65
2019-06-15T08:53:15.424Z,18.60
2019-06-15T08:54:15.569Z,18.67
2019-06-15T08:55:15.445Z,18.51
2019-06-15T08:56:15.413Z,18.51
2019-06-15T08:57:15.370Z,18.41
2019-06-15T08:58:15.358Z,18.45
2019-06-15T08:59:15.340Z,18.41
2019-06-15T09:00:15.655Z,18.36
2019-06-15T09:01:15.315Z,18.36
2019-06-15T09:02:15.310Z,18.41
2019-06-15T09:03:15.275Z,18.36
2019-06-15T09:04:15.258Z,18.35
2019-06-15T09:05:15.249Z,18.30
2019-06-15T09:06:15.231Z,18.42
2019-06-15T09:07:15.241Z,18.37
2019-06-15T09:08:15.238Z,18.42
2019-06-15T09:09:16.072Z,18.35
2019-06-15T09:10:15.175Z,18.39
2019-06-15T09:11:15.155Z,18.41
2019-06-15T09:12:15.140Z,18.48
2019-06-15T09:13:15.139Z,18.52
2019-06-15T09:14:15.116Z,18.55
2019-06-15T09:15:15.097Z,18.48
2019-06-15T09:16:15.128Z,18.69
2019-06-15T09:17:15.203Z,18.73
2019-06-15T09:18:15.049Z,18.75
2019-06-15T09:19:15.070Z,18.85
2019-06-15T09:20:15.044Z,18.95
2019-06-15T09:21:15.011Z,19.10
2019-06-15T09:22:14.985Z,19.10
2019-06-15T09:23:14.976Z,19.25
2019-06-15T09:24:14.970Z,19.32
2019-06-15T09:25:14.944Z,19.39
2019-06-15T09:26:14.932Z,19.55
2019-06-15T09:27:14.911Z,19.74
2019-06-15T09:28:14.896Z,20.05
2019-06-15T09:29:14.902Z,20.14
2019-06-15T09:30:14.923Z,20.41
2019-06-15T09:31:14.866Z,20.41
2019-06-15T09:32:14.848Z,20.57
2019-06-15T09:33:14.980Z,20.50
2019-06-15T09:34:18.981Z,20.24
2019-06-15T09:35:14.806Z,20.52
2019-06-15T09:36:14.834Z,20.67
2019-06-15T09:37:14.772Z,20.80
2019-06-15T09:38:14.988Z,21.01
2019-06-15T09:39:14.816Z,21.25
2019-06-15T09:40:14.768Z,21.34
2019-06-15T09:41:14.727Z,21.53
2019-06-15T09:42:14.728Z,21.75
2019-06-15T09:43:14.703Z,21.64
2019-06-15T09:44:14.687Z,21.68
2019-06-15T09:45:14.671Z,21.92
2019-06-15T09:46:14.663Z,21.90
2019-06-15T09:47:14.651Z,22.00
2019-06-15T09:48:14.674Z,22.09
2019-06-15T09:49:14.622Z,22.27
2019-06-15T09:50:14.612Z,22.30
2019-06-15T09:51:14.593Z,22.47
2019-06-15T09:52:14.601Z,22.55
2019-06-15T09:53:14.570Z,22.82
2019-06-15T09:54:14.560Z,22.83
2019-06-15T09:55:14.541Z,22.97
2019-06-15T09:56:14.912Z,23.13
2019-06-15T09:57:14.529Z,23.09
2019-06-15T09:58:14.620Z,23.20
2019-06-15T09:59:25.576Z,23.31
2019-06-15T10:00:14.497Z,23.22
2019-06-15T10:01:14.475Z,23.09
2019-06-15T10:02:14.504Z,22.91
2019-06-15T10:03:14.490Z,22.68
2019-06-15T10:04:14.460Z,22.82
2019-06-15T10:05:14.435Z,23.01
2019-06-15T10:06:14.439Z,23.10
2019-06-15T10:07:14.413Z,23.27
2019-06-15T10:08:14.410Z,23.35
2019-06-15T10:09:14.412Z,23.43
2019-06-15T10:10:14.380Z,23.36
2019-06-15T10:11:14.388Z,23.15
2019-06-15T10:12:14.364Z,23.35
2019-06-15T10:13:14.342Z,23.40
2019-06-15T10:14:14.331Z,23.27
2019-06-15T10:15:14.346Z,23.23
2019-06-15T10:16:14.314Z,23.01
2019-06-15T10:17:14.311Z,23.15
2019-06-15T10:18:14.302Z,23.17
2019-06-15T10:19:14.275Z,23.35
2019-06-15T10:20:14.262Z,23.58
2019-06-15T10:21:14.250Z,23.72
2019-06-15T10:22:14.265Z,23.79
2019-06-15T10:23:14.276Z,23.50
2019-06-15T10:24:14.236Z,23.50
2019-06-15T10:25:14.227Z,23.51
2019-06-15T10:26:14.204Z,23.65
2019-06-15T10:27:14.183Z,23.66
2019-06-15T10:28:14.173Z,23.54
2019-06-15T10:29:14.180Z,23.51
2019-06-15T10:30:14.241Z,23.58
2019-06-15T10:31:14.165Z,23.61
2019-06-15T10:32:14.151Z,23.70
2019-06-15T10:33:14.119Z,23.54
2019-06-15T10:34:14.121Z,23.66
2019-06-15T10:35:14.183Z,23.94
2019-06-15T10:36:14.085Z,24.08
2019-06-15T10:37:14.103Z,24.30
2019-06-15T10:38:14.069Z,24.45
2019-06-15T10:39:14.056Z,24.45
2019-06-15T10:40:14.037Z,24.60
2019-06-15T10:41:14.069Z,24.60
2019-06-15T10:42:14.043Z,24.61
2019-06-15T10:43:14.007Z,24.65
2019-06-15T10:44:14.010Z,24.58
2019-06-15T10:45:13.980Z,24.55
2019-06-15T10:46:13.972Z,24.64
2019-06-15T10:47:13.958Z,24.42
2019-06-15T10:48:13.962Z,24.08
2019-06-15T10:49:13.942Z,24.15
2019-06-15T10:50:13.936Z,24.49
2019-06-15T10:51:13.977Z,24.68
2019-06-15T10:52:13.912Z,24.68
2019-06-15T10:53:14.023Z,24.78
2019-06-15T10:54:13.882Z,24.52
2019-06-15T10:55:13.871Z,24.40
2019-06-15T10:56:13.856Z,24.46
2019-06-15T10:57:13.876Z,24.46
2019-06-15T10:58:13.861Z,24.18
2019-06-15T10:59:13.931Z,24.20
2019-06-15T11:00:13.822Z,24.27
2019-06-15T11:01:13.806Z,24.24
2019-06-15T11:02:13.798Z,24.27
2019-06-15T11:03:13.791Z,24.18
2019-06-15T11:04:13.801Z,24.31
2019-06-15T11:05:13.793Z,24.28
2019-06-15T11:06:13.747Z,24.20
2019-06-15T11:07:13.756Z,24.35
2019-06-15T11:08:13.738Z,24.32
2019-06-15T11:09:13.718Z,24.40
2019-06-15T11:10:13.742Z,24.68
2019-06-15T11:11:13.748Z,24.61
2019-06-15T11:12:13.692Z,24.77
2019-06-15T11:13:13.675Z,24.88
2019-06-15T11:14:13.703Z,24.84
2019-06-15T11:15:13.658Z,24.73
2019-06-15T11:16:13.678Z,24.67
2019-06-15T11:17:13.633Z,24.34
2019-06-15T11:18:13.623Z,24.22
2019-06-15T11:19:13.623Z,24.08
2019-06-15T11:20:13.607Z,24.06
2019-06-15T11:21:13.618Z,23.76
2019-06-15T11:22:13.581Z,23.60
2019-06-15T11:23:13.571Z,23.54
2019-06-15T11:24:13.561Z,23.47
2019-06-15T11:25:13.554Z,23.46
2019-06-15T11:26:13.592Z,23.46
2019-06-15T11:27:13.560Z,23.54
2019-06-15T11:28:13.514Z,23.61
2019-06-15T11:29:13.513Z,23.55
2019-06-15T11:30:14.585Z,23.58
2019-06-15T11:31:13.545Z,23.55
2019-06-15T11:32:13.475Z,23.60
2019-06-15T11:33:13.480Z,23.68
2019-06-15T11:34:13.562Z,23.65
2019-06-15T11:35:13.437Z,23.63
2019-06-15T11:36:13.493Z,23.63
2019-06-15T11:37:13.428Z,23.66
2019-06-15T11:38:13.440Z,23.65
2019-06-15T11:39:13.443Z,23.60
2019-06-15T11:40:13.516Z,23.51
2019-06-15T11:41:13.376Z,23.40
2019-06-15T11:42:13.362Z,23.47
2019-06-15T11:43:13.350Z,23.36
2019-06-15T11:44:13.344Z,23.43
2019-06-15T11:45:13.344Z,23.36
2019-06-15T11:46:13.325Z,23.35
2019-06-15T11:47:13.335Z,23.25
2019-06-15T11:48:13.320Z,23.31
2019-06-15T11:49:13.283Z,23.27
2019-06-15T11:50:13.354Z,23.36
2019-06-15T11:51:13.317Z,23.39
2019-06-15T11:52:13.247Z,23.46
2019-06-15T11:53:13.550Z,23.35
2019-06-15T11:54:13.243Z,23.54
2019-06-15T11:55:13.213Z,23.80
2019-06-15T11:56:13.266Z,24.03
2019-06-15T11:57:13.194Z,24.34
2019-06-15T11:58:13.206Z,24.16
2019-06-15T11:59:13.173Z,24.20
2019-06-15T12:00:29.680Z,23.75
2019-06-15T12:01:13.171Z,23.50
2019-06-15T12:02:13.184Z,23.15
2019-06-15T12:03:13.151Z,23.04
2019-06-15T12:04:13.112Z,22.94
2019-06-15T12:05:13.185Z,22.90
2019-06-15T12:06:13.098Z,22.91
2019-06-15T12:07:13.115Z,22.86
2019-06-15T12:08:13.237Z,22.91
2019-06-15T12:09:13.079Z,22.94
2019-06-15T12:10:13.045Z,23.00
2019-06-15T12:11:13.368Z,23.01
2019-06-15T12:12:13.039Z,23.07
2019-06-15T12:13:13.023Z,23.19
2019-06-15T12:14:12.992Z,23.09
2019-06-15T12:15:13.222Z,23.12
2019-06-15T12:16:12.974Z,23.01
2019-06-15T12:17:13.044Z,22.94
2019-06-15T12:18:12.952Z,22.85
2019-06-15T12:19:12.961Z,22.68
2019-06-15T12:20:12.941Z,22.61
2019-06-15T12:21:12.914Z,22.45
2019-06-15T12:22:12.981Z,22.47
2019-06-15T12:23:12.888Z,22.51
2019-06-15T12:24:12.882Z,22.68
2019-06-15T12:25:13.199Z,22.91
2019-06-15T12:26:12.978Z,23.10
2019-06-15T12:27:13.039Z,23.65
2019-06-15T12:28:13.225Z,23.85
2019-06-15T12:29:12.817Z,24.20
2019-06-15T12:30:12.869Z,24.49
2019-06-15T12:31:12.874Z,24.65
2019-06-15T12:32:12.804Z,24.64
2019-06-15T12:33:12.781Z,24.55
2019-06-15T12:34:12.825Z,24.49
2019-06-15T12:35:12.745Z,24.64
2019-06-15T12:36:19.336Z,24.77
2019-06-15T12:37:12.722Z,25.17
2019-06-15T12:38:12.725Z,25.36
2019-06-15T12:39:12.699Z,25.67
2019-06-15T12:40:12.764Z,25.88
2019-06-15T12:41:12.676Z,25.98
2019-06-15T12:42:12.682Z,25.95
2019-06-15T12:43:12.652Z,25.92
2019-06-15T12:44:12.786Z,25.92
2019-06-15T12:45:12.648Z,25.75
2019-06-15T12:46:12.631Z,25.57
2019-06-15T12:47:12.635Z,25.61
2019-06-15T12:48:12.603Z,25.54
2019-06-15T12:49:12.592Z,25.85
2019-06-15T12:50:12.582Z,26.18
2019-06-15T12:51:12.576Z,26.36
2019-06-15T12:52:12.557Z,26.44
2019-06-15T12:53:12.558Z,25.79
2019-06-15T12:54:12.545Z,25.82
2019-06-15T12:55:12.546Z,25.55
2019-06-15T12:56:12.530Z,25.72
2019-06-15T12:57:12.501Z,25.80
2019-06-15T12:58:12.532Z,25.51
2019-06-15T12:59:12.495Z,24.98
2019-06-15T13:00:12.481Z,24.81
2019-06-15T13:01:12.462Z,24.62
2019-06-15T13:02:12.450Z,24.47
2019-06-15T13:03:12.442Z,24.34
2019-06-15T13:04:12.447Z,24.34
2019-06-15T13:05:12.436Z,24.22
2019-06-15T13:06:12.409Z,24.10